sensor_id;sensor_type;location;lat;lon;timestamp;P1;durP1;ratioP1;P2;durP2;ratioP2
11471;SDS011;47430;50.808;4.388;2022-07-04T00:00:20;5.22;;;1.55;;
11471;SDS011;47430;50.808;4.388;2022-07-04T00:02:46;3.65;;;2.00;;
11471;SDS011;47430;50.808;4.388;2022-07-04T00:05:12;3.33;;;1.48;;
11471;SDS011;47430;50.808;4.388;2022-07-04T00:07:42;2.22;;;1.52;;
11471;SDS011;47430;50.808;4.388;2022-07-04T00:10:09;2.03;;;1.75;;
11471;SDS011;47430;50.808;4.388;2022-07-04T00:12:36;4.47;;;1.50;;
11471;SDS011;47430;50.808;4.388;2022-07-04T00:15:02;3.13;;;1.67;;
11471;SDS011;47430;50.808;4.388;2022-07-04T00:17:29;4.72;;;2.13;;
11471;SDS011;47430;50.808;4.388;2022-07-04T00:19:55;3.95;;;1.73;;
11471;SDS011;47430;50.808;4.388;2022-07-04T00:22:21;2.63;;;1.83;;
11471;SDS011;47430;50.808;4.388;2022-07-04T00:24:47;2.95;;;1.80;;
11471;SDS011;47430;50.808;4.388;2022-07-04T00:27:13;4.53;;;2.10;;
11471;SDS011;47430;50.808;4.388;2022-07-04T00:29:40;5.95;;;1.90;;
11471;SDS011;47430;50.808;4.388;2022-07-04T00:32:06;3.97;;;2.17;;
11471;SDS011;47430;50.808;4.388;2022-07-04T00:34:32;10.57;;;1.85;;
11471;SDS011;47430;50.808;4.388;2022-07-04T00:36:58;4.10;;;1.65;;
11471;SDS011;47430;50.808;4.388;2022-07-04T00:39:24;3.60;;;1.90;;
11471;SDS011;47430;50.808;4.388;2022-07-04T00:41:50;5.10;;;1.85;;
11471;SDS011;47430;50.808;4.388;2022-07-04T00:44:16;3.70;;;1.80;;
11471;SDS011;47430;50.808;4.388;2022-07-04T00:46:43;6.50;;;1.92;;
11471;SDS011;47430;50.808;4.388;2022-07-04T00:49:10;2.97;;;1.63;;
11471;SDS011;47430;50.808;4.388;2022-07-04T00:51:36;3.97;;;1.90;;
11471;SDS011;47430;50.808;4.388;2022-07-04T00:54:03;4.82;;;1.85;;
11471;SDS011;47430;50.808;4.388;2022-07-04T00:56:30;4.63;;;1.90;;
11471;SDS011;47430;50.808;4.388;2022-07-04T00:58:56;5.93;;;2.28;;
11471;SDS011;47430;50.808;4.388;2022-07-04T01:01:24;6.50;;;2.20;;
11471;SDS011;47430;50.808;4.388;2022-07-04T01:03:51;5.53;;;2.00;;
11471;SDS011;47430;50.808;4.388;2022-07-04T01:06:18;3.17;;;1.88;;
11471;SDS011;47430;50.808;4.388;2022-07-04T01:08:45;3.08;;;1.70;;
11471;SDS011;47430;50.808;4.388;2022-07-04T01:11:11;3.85;;;1.63;;
11471;SDS011;47430;50.808;4.388;2022-07-04T01:13:37;3.65;;;2.00;;
11471;SDS011;47430;50.808;4.388;2022-07-04T01:16:05;3.17;;;1.83;;
11471;SDS011;47430;50.808;4.388;2022-07-04T01:18:31;3.10;;;1.63;;
11471;SDS011;47430;50.808;4.388;2022-07-04T01:20:57;3.28;;;1.95;;
11471;SDS011;47430;50.808;4.388;2022-07-04T01:23:24;2.28;;;1.73;;
11471;SDS011;47430;50.808;4.388;2022-07-04T01:25:50;3.90;;;2.20;;
11471;SDS011;47430;50.808;4.388;2022-07-04T01:28:23;5.97;;;2.17;;
11471;SDS011;47430;50.808;4.388;2022-07-04T01:30:50;3.85;;;1.83;;
11471;SDS011;47430;50.808;4.388;2022-07-04T01:33:16;3.05;;;1.80;;
11471;SDS011;47430;50.808;4.388;2022-07-04T01:35:45;5.50;;;2.13;;
11471;SDS011;47430;50.808;4.388;2022-07-04T01:38:11;4.05;;;2.30;;
11471;SDS011;47430;50.808;4.388;2022-07-04T01:40:37;5.43;;;2.03;;
11471;SDS011;47430;50.808;4.388;2022-07-04T01:43:03;8.77;;;2.10;;
11471;SDS011;47430;50.808;4.388;2022-07-04T01:45:29;3.10;;;2.05;;
11471;SDS011;47430;50.808;4.388;2022-07-04T01:47:59;4.10;;;1.80;;
11471;SDS011;47430;50.808;4.388;2022-07-04T01:50:25;6.22;;;2.28;;
11471;SDS011;47430;50.808;4.388;2022-07-04T01:52:51;6.00;;;1.98;;
11471;SDS011;47430;50.808;4.388;2022-07-04T01:55:17;3.03;;;2.10;;
11471;SDS011;47430;50.808;4.388;2022-07-04T01:57:43;4.80;;;2.17;;
11471;SDS011;47430;50.808;4.388;2022-07-04T02:00:09;2.72;;;1.92;;
11471;SDS011;47430;50.808;4.388;2022-07-04T02:02:55;4.65;;;2.30;;
11471;SDS011;47430;50.808;4.388;2022-07-04T02:05:21;6.00;;;2.17;;
11471;SDS011;47430;50.808;4.388;2022-07-04T02:07:47;5.20;;;2.03;;
11471;SDS011;47430;50.808;4.388;2022-07-04T02:10:13;5.47;;;1.90;;
11471;SDS011;47430;50.808;4.388;2022-07-04T02:12:40;4.03;;;2.38;;
11471;SDS011;47430;50.808;4.388;2022-07-04T02:15:25;2.38;;;2.00;;
11471;SDS011;47430;50.808;4.388;2022-07-04T02:17:51;3.15;;;1.80;;
11471;SDS011;47430;50.808;4.388;2022-07-04T02:20:17;2.05;;;1.80;;
11471;SDS011;47430;50.808;4.388;2022-07-04T02:22:43;5.80;;;2.00;;
11471;SDS011;47430;50.808;4.388;2022-07-04T02:25:09;4.63;;;2.33;;
11471;SDS011;47430;50.808;4.388;2022-07-04T02:27:36;6.30;;;1.90;;
11471;SDS011;47430;50.808;4.388;2022-07-04T02:30:03;2.83;;;2.00;;
11471;SDS011;47430;50.808;4.388;2022-07-04T02:32:29;6.60;;;2.15;;
11471;SDS011;47430;50.808;4.388;2022-07-04T02:34:55;5.88;;;2.30;;
11471;SDS011;47430;50.808;4.388;2022-07-04T02:37:21;4.75;;;1.80;;
11471;SDS011;47430;50.808;4.388;2022-07-04T02:39:47;7.50;;;2.33;;
11471;SDS011;47430;50.808;4.388;2022-07-04T02:42:13;3.03;;;1.95;;
11471;SDS011;47430;50.808;4.388;2022-07-04T02:44:39;6.15;;;2.17;;
11471;SDS011;47430;50.808;4.388;2022-07-04T02:47:06;4.60;;;2.05;;
11471;SDS011;47430;50.808;4.388;2022-07-04T02:49:33;6.53;;;2.15;;
11471;SDS011;47430;50.808;4.388;2022-07-04T02:51:59;3.83;;;2.33;;
11471;SDS011;47430;50.808;4.388;2022-07-04T02:54:25;3.97;;;2.15;;
11471;SDS011;47430;50.808;4.388;2022-07-04T02:56:51;5.22;;;1.92;;
11471;SDS011;47430;50.808;4.388;2022-07-04T02:59:17;8.65;;;2.13;;
11471;SDS011;47430;50.808;4.388;2022-07-04T03:01:43;5.63;;;2.33;;
11471;SDS011;47430;50.808;4.388;2022-07-04T03:04:09;5.25;;;2.10;;
11471;SDS011;47430;50.808;4.388;2022-07-04T03:06:35;3.67;;;1.75;;
11471;SDS011;47430;50.808;4.388;2022-07-04T03:09:01;2.55;;;2.10;;
11471;SDS011;47430;50.808;4.388;2022-07-04T03:11:28;3.88;;;2.30;;
11471;SDS011;47430;50.808;4.388;2022-07-04T03:13:54;8.60;;;2.30;;
11471;SDS011;47430;50.808;4.388;2022-07-04T03:16:20;4.20;;;2.50;;
11471;SDS011;47430;50.808;4.388;2022-07-04T03:18:46;4.03;;;2.28;;
11471;SDS011;47430;50.808;4.388;2022-07-04T03:21:12;3.35;;;2.08;;
11471;SDS011;47430;50.808;4.388;2022-07-04T03:23:38;12.52;;;2.80;;
11471;SDS011;47430;50.808;4.388;2022-07-04T03:26:04;8.23;;;2.85;;
11471;SDS011;47430;50.808;4.388;2022-07-04T03:28:30;4.55;;;2.40;;
11471;SDS011;47430;50.808;4.388;2022-07-04T03:30:56;5.68;;;2.08;;
11471;SDS011;47430;50.808;4.388;2022-07-04T03:33:23;3.67;;;1.88;;
11471;SDS011;47430;50.808;4.388;2022-07-04T03:35:49;2.65;;;1.77;;
11471;SDS011;47430;50.808;4.388;2022-07-04T03:38:15;4.50;;;2.00;;
11471;SDS011;47430;50.808;4.388;2022-07-04T03:40:41;3.40;;;1.92;;
11471;SDS011;47430;50.808;4.388;2022-07-04T03:43:08;3.33;;;1.80;;
11471;SDS011;47430;50.808;4.388;2022-07-04T03:45:34;2.80;;;2.38;;
11471;SDS011;47430;50.808;4.388;2022-07-04T03:48:00;2.47;;;1.75;;
11471;SDS011;47430;50.808;4.388;2022-07-04T03:50:29;3.65;;;2.00;;
11471;SDS011;47430;50.808;4.388;2022-07-04T03:52:55;4.20;;;2.25;;
11471;SDS011;47430;50.808;4.388;2022-07-04T03:55:21;3.85;;;1.90;;
11471;SDS011;47430;50.808;4.388;2022-07-04T03:57:48;7.38;;;1.77;;
11471;SDS011;47430;50.808;4.388;2022-07-04T04:00:14;2.13;;;1.80;;
11471;SDS011;47430;50.808;4.388;2022-07-04T04:02:40;4.50;;;1.75;;
11471;SDS011;47430;50.808;4.388;2022-07-04T04:05:07;7.18;;;2.10;;
11471;SDS011;47430;50.808;4.388;2022-07-04T04:07:53;6.63;;;2.17;;
11471;SDS011;47430;50.808;4.388;2022-07-04T04:10:19;5.30;;;2.15;;
11471;SDS011;47430;50.808;4.388;2022-07-04T04:12:45;5.18;;;2.30;;
11471;SDS011;47430;50.808;4.388;2022-07-04T04:15:11;6.45;;;2.42;;
11471;SDS011;47430;50.808;4.388;2022-07-04T04:17:37;3.90;;;2.20;;
11471;SDS011;47430;50.808;4.388;2022-07-04T04:20:03;5.45;;;2.00;;
11471;SDS011;47430;50.808;4.388;2022-07-04T04:22:29;3.15;;;2.10;;
11471;SDS011;47430;50.808;4.388;2022-07-04T04:24:56;6.65;;;1.73;;
11471;SDS011;47430;50.808;4.388;2022-07-04T04:27:22;2.90;;;1.75;;
11471;SDS011;47430;50.808;4.388;2022-07-04T04:29:48;4.68;;;1.88;;
11471;SDS011;47430;50.808;4.388;2022-07-04T04:32:14;4.07;;;2.22;;
11471;SDS011;47430;50.808;4.388;2022-07-04T04:34:41;5.22;;;1.70;;
11471;SDS011;47430;50.808;4.388;2022-07-04T04:37:07;5.00;;;2.17;;
11471;SDS011;47430;50.808;4.388;2022-07-04T04:39:33;6.50;;;1.95;;
11471;SDS011;47430;50.808;4.388;2022-07-04T04:41:59;2.90;;;1.95;;
11471;SDS011;47430;50.808;4.388;2022-07-04T04:44:25;4.93;;;1.75;;
11471;SDS011;47430;50.808;4.388;2022-07-04T04:46:51;5.35;;;1.90;;
11471;SDS011;47430;50.808;4.388;2022-07-04T04:49:17;5.78;;;2.20;;
11471;SDS011;47430;50.808;4.388;2022-07-04T04:51:43;7.40;;;1.90;;
11471;SDS011;47430;50.808;4.388;2022-07-04T04:54:10;2.85;;;1.85;;
11471;SDS011;47430;50.808;4.388;2022-07-04T04:56:36;3.13;;;1.70;;
11471;SDS011;47430;50.808;4.388;2022-07-04T04:59:02;8.77;;;3.92;;
11471;SDS011;47430;50.808;4.388;2022-07-04T05:01:28;7.45;;;1.73;;
11471;SDS011;47430;50.808;4.388;2022-07-04T05:03:54;9.05;;;2.00;;
11471;SDS011;47430;50.808;4.388;2022-07-04T05:06:20;3.08;;;1.75;;
11471;SDS011;47430;50.808;4.388;2022-07-04T05:08:46;3.42;;;2.00;;
11471;SDS011;47430;50.808;4.388;2022-07-04T05:11:13;5.45;;;1.75;;
11471;SDS011;47430;50.808;4.388;2022-07-04T05:13:39;5.57;;;1.60;;
11471;SDS011;47430;50.808;4.388;2022-07-04T05:16:05;8.77;;;2.13;;
11471;SDS011;47430;50.808;4.388;2022-07-04T05:18:31;8.18;;;2.00;;
11471;SDS011;47430;50.808;4.388;2022-07-04T05:20:58;2.90;;;1.90;;
11471;SDS011;47430;50.808;4.388;2022-07-04T05:23:24;2.13;;;1.70;;
11471;SDS011;47430;50.808;4.388;2022-07-04T05:25:50;6.40;;;2.60;;
11471;SDS011;47430;50.808;4.388;2022-07-04T05:28:16;8.00;;;2.28;;
11471;SDS011;47430;50.808;4.388;2022-07-04T05:30:42;6.47;;;1.85;;
11471;SDS011;47430;50.808;4.388;2022-07-04T05:33:08;4.55;;;2.00;;
11471;SDS011;47430;50.808;4.388;2022-07-04T05:35:35;4.15;;;2.22;;
11471;SDS011;47430;50.808;4.388;2022-07-04T05:38:01;5.65;;;1.85;;
11471;SDS011;47430;50.808;4.388;2022-07-04T05:40:27;5.18;;;1.60;;
11471;SDS011;47430;50.808;4.388;2022-07-04T05:42:53;5.10;;;2.10;;
11471;SDS011;47430;50.808;4.388;2022-07-04T05:45:19;7.47;;;2.70;;
11471;SDS011;47430;50.808;4.388;2022-07-04T05:47:45;4.45;;;1.67;;
11471;SDS011;47430;50.808;4.388;2022-07-04T05:50:11;5.60;;;1.52;;
11471;SDS011;47430;50.808;4.388;2022-07-04T05:52:37;4.78;;;2.25;;
11471;SDS011;47430;50.808;4.388;2022-07-04T05:55:03;7.03;;;2.20;;
11471;SDS011;47430;50.808;4.388;2022-07-04T05:57:29;4.85;;;2.20;;
11471;SDS011;47430;50.808;4.388;2022-07-04T05:59:55;3.60;;;1.70;;
11471;SDS011;47430;50.808;4.388;2022-07-04T06:02:21;11.15;;;2.22;;
11471;SDS011;47430;50.808;4.388;2022-07-04T06:04:47;3.63;;;1.90;;
11471;SDS011;47430;50.808;4.388;2022-07-04T06:07:13;4.28;;;2.00;;
11471;SDS011;47430;50.808;4.388;2022-07-04T06:09:39;3.88;;;1.92;;
11471;SDS011;47430;50.808;4.388;2022-07-04T06:12:05;10.57;;;2.13;;
11471;SDS011;47430;50.808;4.388;2022-07-04T06:14:31;3.97;;;2.15;;
11471;SDS011;47430;50.808;4.388;2022-07-04T06:16:57;3.70;;;1.88;;
11471;SDS011;47430;50.808;4.388;2022-07-04T06:19:23;10.40;;;1.90;;
11471;SDS011;47430;50.808;4.388;2022-07-04T06:21:49;4.20;;;1.65;;
11471;SDS011;47430;50.808;4.388;2022-07-04T06:24:15;2.72;;;1.45;;
11471;SDS011;47430;50.808;4.388;2022-07-04T06:26:41;8.05;;;1.98;;
11471;SDS011;47430;50.808;4.388;2022-07-04T06:29:07;11.00;;;1.90;;
11471;SDS011;47430;50.808;4.388;2022-07-04T06:31:34;6.32;;;1.95;;
11471;SDS011;47430;50.808;4.388;2022-07-04T06:34:00;4.68;;;1.50;;
11471;SDS011;47430;50.808;4.388;2022-07-04T06:36:45;4.90;;;2.08;;
11471;SDS011;47430;50.808;4.388;2022-07-04T06:39:11;7.07;;;1.65;;
11471;SDS011;47430;50.808;4.388;2022-07-04T06:41:37;5.07;;;1.63;;
11471;SDS011;47430;50.808;4.388;2022-07-04T06:44:03;4.22;;;1.50;;
11471;SDS011;47430;50.808;4.388;2022-07-04T06:46:30;4.25;;;1.73;;
11471;SDS011;47430;50.808;4.388;2022-07-04T06:48:56;3.33;;;2.33;;
11471;SDS011;47430;50.808;4.388;2022-07-04T06:51:22;7.13;;;1.55;;
11471;SDS011;47430;50.808;4.388;2022-07-04T06:53:48;5.32;;;2.30;;
11471;SDS011;47430;50.808;4.388;2022-07-04T06:56:16;4.45;;;1.27;;
11471;SDS011;47430;50.808;4.388;2022-07-04T06:58:42;4.05;;;1.60;;
11471;SDS011;47430;50.808;4.388;2022-07-04T07:01:08;3.03;;;1.50;;
11471;SDS011;47430;50.808;4.388;2022-07-04T07:03:34;3.47;;;1.50;;
11471;SDS011;47430;50.808;4.388;2022-07-04T07:06:00;7.93;;;2.20;;
11471;SDS011;47430;50.808;4.388;2022-07-04T07:08:28;4.32;;;1.50;;
11471;SDS011;47430;50.808;4.388;2022-07-04T07:10:55;1.67;;;1.40;;
11471;SDS011;47430;50.808;4.388;2022-07-04T07:13:21;5.63;;;1.40;;
11471;SDS011;47430;50.808;4.388;2022-07-04T07:15:47;4.22;;;1.25;;
11471;SDS011;47430;50.808;4.388;2022-07-04T07:18:13;11.13;;;2.35;;
11471;SDS011;47430;50.808;4.388;2022-07-04T07:20:39;4.10;;;1.65;;
11471;SDS011;47430;50.808;4.388;2022-07-04T07:23:05;3.85;;;1.60;;
11471;SDS011;47430;50.808;4.388;2022-07-04T07:25:31;3.88;;;1.17;;
11471;SDS011;47430;50.808;4.388;2022-07-04T07:27:57;14.85;;;2.50;;
11471;SDS011;47430;50.808;4.388;2022-07-04T07:30:24;5.65;;;1.52;;
11471;SDS011;47430;50.808;4.388;2022-07-04T07:32:50;6.30;;;1.40;;
11471;SDS011;47430;50.808;4.388;2022-07-04T07:35:16;4.57;;;1.92;;
11471;SDS011;47430;50.808;4.388;2022-07-04T07:37:42;4.13;;;1.40;;
11471;SDS011;47430;50.808;4.388;2022-07-04T07:40:08;5.03;;;1.33;;
11471;SDS011;47430;50.808;4.388;2022-07-04T07:42:35;3.95;;;1.27;;
11471;SDS011;47430;50.808;4.388;2022-07-04T07:45:01;2.90;;;1.73;;
11471;SDS011;47430;50.808;4.388;2022-07-04T07:47:27;3.97;;;1.27;;
11471;SDS011;47430;50.808;4.388;2022-07-04T07:49:53;5.40;;;1.58;;
11471;SDS011;47430;50.808;4.388;2022-07-04T07:52:19;3.45;;;1.35;;
11471;SDS011;47430;50.808;4.388;2022-07-04T07:54:45;7.18;;;1.20;;
11471;SDS011;47430;50.808;4.388;2022-07-04T07:57:11;4.35;;;1.35;;
11471;SDS011;47430;50.808;4.388;2022-07-04T07:59:37;1.90;;;1.00;;
11471;SDS011;47430;50.808;4.388;2022-07-04T08:02:03;4.07;;;1.25;;
11471;SDS011;47430;50.808;4.388;2022-07-04T08:04:29;2.17;;;1.00;;
11471;SDS011;47430;50.808;4.388;2022-07-04T08:07:07;1.42;;;1.10;;
11471;SDS011;47430;50.808;4.388;2022-07-04T08:09:33;2.42;;;1.15;;
11471;SDS011;47430;50.808;4.388;2022-07-04T08:12:00;3.85;;;1.73;;
11471;SDS011;47430;50.808;4.388;2022-07-04T08:14:27;2.30;;;1.13;;
11471;SDS011;47430;50.808;4.388;2022-07-04T08:16:54;2.20;;;1.10;;
11471;SDS011;47430;50.808;4.388;2022-07-04T08:19:21;3.78;;;1.27;;
11471;SDS011;47430;50.808;4.388;2022-07-04T08:21:47;1.55;;;0.98;;
11471;SDS011;47430;50.808;4.388;2022-07-04T08:24:14;3.33;;;1.02;;
11471;SDS011;47430;50.808;4.388;2022-07-04T08:26:40;8.90;;;1.33;;
11471;SDS011;47430;50.808;4.388;2022-07-04T08:29:06;6.15;;;1.55;;
11471;SDS011;47430;50.808;4.388;2022-07-04T08:31:32;3.65;;;1.20;;
11471;SDS011;47430;50.808;4.388;2022-07-04T08:33:58;2.72;;;1.02;;
11471;SDS011;47430;50.808;4.388;2022-07-04T08:36:24;2.90;;;0.90;;
11471;SDS011;47430;50.808;4.388;2022-07-04T08:38:50;1.73;;;1.02;;
11471;SDS011;47430;50.808;4.388;2022-07-04T08:41:17;4.65;;;1.45;;
11471;SDS011;47430;50.808;4.388;2022-07-04T08:43:44;4.85;;;1.33;;
11471;SDS011;47430;50.808;4.388;2022-07-04T08:46:11;1.95;;;1.05;;
11471;SDS011;47430;50.808;4.388;2022-07-04T08:48:38;3.78;;;1.55;;
11471;SDS011;47430;50.808;4.388;2022-07-04T08:53:37;2.75;;;1.33;;
11471;SDS011;47430;50.808;4.388;2022-07-04T08:56:05;1.42;;;0.90;;
11471;SDS011;47430;50.808;4.388;2022-07-04T08:58:50;9.30;;;1.77;;
11471;SDS011;47430;50.808;4.388;2022-07-04T09:01:17;2.03;;;1.33;;
11471;SDS011;47430;50.808;4.388;2022-07-04T09:03:43;2.30;;;0.98;;
11471;SDS011;47430;50.808;4.388;2022-07-04T09:06:10;2.85;;;1.38;;
11471;SDS011;47430;50.808;4.388;2022-07-04T09:08:37;6.47;;;2.38;;
11471;SDS011;47430;50.808;4.388;2022-07-04T09:11:04;5.03;;;1.30;;
11471;SDS011;47430;50.808;4.388;2022-07-04T09:13:30;5.00;;;1.42;;
11471;SDS011;47430;50.808;4.388;2022-07-04T09:15:56;3.17;;;1.77;;
11471;SDS011;47430;50.808;4.388;2022-07-04T09:18:27;7.10;;;2.50;;
11471;SDS011;47430;50.808;4.388;2022-07-04T09:20:54;6.60;;;2.47;;
11471;SDS011;47430;50.808;4.388;2022-07-04T09:23:38;8.85;;;3.45;;
11471;SDS011;47430;50.808;4.388;2022-07-04T09:26:18;9.00;;;4.07;;
11471;SDS011;47430;50.808;4.388;2022-07-04T09:28:45;8.00;;;3.65;;
11471;SDS011;47430;50.808;4.388;2022-07-04T09:31:15;13.23;;;5.10;;
11471;SDS011;47430;50.808;4.388;2022-07-04T09:33:44;9.88;;;6.07;;
11471;SDS011;47430;50.808;4.388;2022-07-04T09:36:14;12.35;;;5.60;;
11471;SDS011;47430;50.808;4.388;2022-07-04T09:38:40;14.48;;;6.82;;
11471;SDS011;47430;50.808;4.388;2022-07-04T09:41:06;16.70;;;6.32;;
11471;SDS011;47430;50.808;4.388;2022-07-04T09:44:12;17.65;;;6.75;;
11471;SDS011;47430;50.808;4.388;2022-07-04T09:46:38;19.48;;;7.25;;
11471;SDS011;47430;50.808;4.388;2022-07-04T09:49:04;21.05;;;7.93;;
11471;SDS011;47430;50.808;4.388;2022-07-04T09:51:40;19.60;;;6.88;;
11471;SDS011;47430;50.808;4.388;2022-07-04T09:54:26;17.50;;;8.13;;
11471;SDS011;47430;50.808;4.388;2022-07-04T09:56:57;19.50;;;9.05;;
11471;SDS011;47430;50.808;4.388;2022-07-04T09:59:23;19.67;;;7.75;;
11471;SDS011;47430;50.808;4.388;2022-07-04T10:01:50;15.75;;;6.97;;
11471;SDS011;47430;50.808;4.388;2022-07-04T10:04:16;12.55;;;5.90;;
11471;SDS011;47430;50.808;4.388;2022-07-04T10:06:43;14.95;;;5.03;;
11471;SDS011;47430;50.808;4.388;2022-07-04T10:09:16;11.73;;;4.78;;
11471;SDS011;47430;50.808;4.388;2022-07-04T10:11:42;10.68;;;5.03;;
11471;SDS011;47430;50.808;4.388;2022-07-04T10:14:10;14.43;;;5.72;;
11471;SDS011;47430;50.808;4.388;2022-07-04T10:16:37;15.90;;;7.13;;
11471;SDS011;47430;50.808;4.388;2022-07-04T10:19:04;17.52;;;6.15;;
11471;SDS011;47430;50.808;4.388;2022-07-04T10:21:31;7.78;;;4.40;;
11471;SDS011;47430;50.808;4.388;2022-07-04T10:23:57;10.40;;;3.60;;
11471;SDS011;47430;50.808;4.388;2022-07-04T10:26:23;3.53;;;1.88;;
11471;SDS011;47430;50.808;4.388;2022-07-04T10:28:50;2.58;;;1.77;;
11471;SDS011;47430;50.808;4.388;2022-07-04T10:31:18;5.10;;;2.20;;
11471;SDS011;47430;50.808;4.388;2022-07-04T10:33:45;5.85;;;1.95;;
11471;SDS011;47430;50.808;4.388;2022-07-04T10:36:15;6.97;;;1.92;;
11471;SDS011;47430;50.808;4.388;2022-07-04T10:41:14;6.65;;;1.85;;
11471;SDS011;47430;50.808;4.388;2022-07-04T10:43:56;1.98;;;1.20;;
11471;SDS011;47430;50.808;4.388;2022-07-04T10:46:35;1.73;;;1.10;;
11471;SDS011;47430;50.808;4.388;2022-07-04T10:49:05;1.67;;;1.02;;
11471;SDS011;47430;50.808;4.388;2022-07-04T10:56:52;6.30;;;1.48;;
11471;SDS011;47430;50.808;4.388;2022-07-04T11:01:49;9.40;;;2.00;;
11471;SDS011;47430;50.808;4.388;2022-07-04T11:07:01;6.32;;;1.90;;
11471;SDS011;47430;50.808;4.388;2022-07-04T11:09:27;2.42;;;1.20;;
11471;SDS011;47430;50.808;4.388;2022-07-04T11:11:59;6.70;;;1.73;;
11471;SDS011;47430;50.808;4.388;2022-07-04T11:14:38;4.53;;;1.50;;
11471;SDS011;47430;50.808;4.388;2022-07-04T11:17:09;3.88;;;1.60;;
11471;SDS011;47430;50.808;4.388;2022-07-04T11:19:36;1.83;;;1.42;;
11471;SDS011;47430;50.808;4.388;2022-07-04T11:22:02;8.32;;;2.20;;
11471;SDS011;47430;50.808;4.388;2022-07-04T11:24:30;4.57;;;1.85;;
11471;SDS011;47430;50.808;4.388;2022-07-04T11:26:56;3.97;;;2.08;;
11471;SDS011;47430;50.808;4.388;2022-07-04T11:29:23;1.92;;;1.33;;
11471;SDS011;47430;50.808;4.388;2022-07-04T11:31:49;3.15;;;1.77;;
11471;SDS011;47430;50.808;4.388;2022-07-04T11:34:15;1.35;;;1.20;;
11471;SDS011;47430;50.808;4.388;2022-07-04T11:36:42;6.07;;;1.17;;
11471;SDS011;47430;50.808;4.388;2022-07-04T11:39:10;1.95;;;1.27;;
11471;SDS011;47430;50.808;4.388;2022-07-04T11:41:38;2.72;;;1.15;;
11471;SDS011;47430;50.808;4.388;2022-07-04T11:44:23;2.92;;;1.08;;
11471;SDS011;47430;50.808;4.388;2022-07-04T11:52:12;0.98;;;0.90;;
11471;SDS011;47430;50.808;4.388;2022-07-04T11:54:39;4.40;;;1.50;;
11471;SDS011;47430;50.808;4.388;2022-07-04T11:57:24;2.03;;;1.20;;
11471;SDS011;47430;50.808;4.388;2022-07-04T11:59:55;1.30;;;1.10;;
11471;SDS011;47430;50.808;4.388;2022-07-04T12:02:22;2.72;;;1.30;;
11471;SDS011;47430;50.808;4.388;2022-07-04T12:04:48;4.00;;;1.20;;
11471;SDS011;47430;50.808;4.388;2022-07-04T12:07:15;1.83;;;1.10;;
11471;SDS011;47430;50.808;4.388;2022-07-04T12:09:42;4.60;;;1.50;;
11471;SDS011;47430;50.808;4.388;2022-07-04T12:12:09;2.72;;;1.20;;
11471;SDS011;47430;50.808;4.388;2022-07-04T12:14:35;1.98;;;1.00;;
11471;SDS011;47430;50.808;4.388;2022-07-04T12:17:12;2.22;;;1.10;;
11471;SDS011;47430;50.808;4.388;2022-07-04T12:19:55;3.80;;;1.60;;
11471;SDS011;47430;50.808;4.388;2022-07-04T12:24:58;2.33;;;1.13;;
11471;SDS011;47430;50.808;4.388;2022-07-04T12:27:25;2.65;;;1.05;;
11471;SDS011;47430;50.808;4.388;2022-07-04T12:29:52;3.60;;;1.13;;
11471;SDS011;47430;50.808;4.388;2022-07-04T12:32:18;3.35;;;1.10;;
11471;SDS011;47430;50.808;4.388;2022-07-04T12:34:45;1.60;;;1.00;;
11471;SDS011;47430;50.808;4.388;2022-07-04T12:37:14;4.60;;;0.95;;
11471;SDS011;47430;50.808;4.388;2022-07-04T12:39:42;1.73;;;1.35;;
11471;SDS011;47430;50.808;4.388;2022-07-04T12:42:15;2.45;;;1.10;;
11471;SDS011;47430;50.808;4.388;2022-07-04T12:44:42;3.08;;;1.58;;
11471;SDS011;47430;50.808;4.388;2022-07-04T12:47:09;2.13;;;1.23;;
11471;SDS011;47430;50.808;4.388;2022-07-04T12:49:35;2.67;;;1.13;;
11471;SDS011;47430;50.808;4.388;2022-07-04T12:52:09;2.05;;;0.90;;
11471;SDS011;47430;50.808;4.388;2022-07-04T12:54:35;1.58;;;0.95;;
11471;SDS011;47430;50.808;4.388;2022-07-04T12:57:09;2.70;;;1.27;;
11471;SDS011;47430;50.808;4.388;2022-07-04T12:59:36;2.90;;;1.02;;
11471;SDS011;47430;50.808;4.388;2022-07-04T13:02:02;1.02;;;0.80;;
11471;SDS011;47430;50.808;4.388;2022-07-04T13:04:28;4.50;;;1.00;;
11471;SDS011;47430;50.808;4.388;2022-07-04T13:06:56;2.38;;;1.17;;
11471;SDS011;47430;50.808;4.388;2022-07-04T13:09:23;1.17;;;0.90;;
11471;SDS011;47430;50.808;4.388;2022-07-04T13:11:49;1.38;;;0.90;;
11471;SDS011;47430;50.808;4.388;2022-07-04T13:14:34;2.95;;;1.23;;
11471;SDS011;47430;50.808;4.388;2022-07-04T13:17:00;3.55;;;1.35;;
11471;SDS011;47430;50.808;4.388;2022-07-04T13:19:26;1.50;;;1.02;;
11471;SDS011;47430;50.808;4.388;2022-07-04T13:21:52;2.65;;;0.90;;
11471;SDS011;47430;50.808;4.388;2022-07-04T13:24:19;2.00;;;1.00;;
11471;SDS011;47430;50.808;4.388;2022-07-04T13:26:46;2.92;;;1.20;;
11471;SDS011;47430;50.808;4.388;2022-07-04T13:29:12;1.33;;;0.95;;
11471;SDS011;47430;50.808;4.388;2022-07-04T13:31:39;2.05;;;1.08;;
11471;SDS011;47430;50.808;4.388;2022-07-04T13:34:05;1.10;;;0.90;;
11471;SDS011;47430;50.808;4.388;2022-07-04T13:36:31;1.67;;;0.95;;
11471;SDS011;47430;50.808;4.388;2022-07-04T13:38:57;2.10;;;1.10;;
11471;SDS011;47430;50.808;4.388;2022-07-04T13:41:22;3.22;;;1.02;;
11471;SDS011;47430;50.808;4.388;2022-07-04T13:43:48;2.75;;;1.05;;
11471;SDS011;47430;50.808;4.388;2022-07-04T13:46:15;1.08;;;0.73;;
11471;SDS011;47430;50.808;4.388;2022-07-04T13:48:41;2.28;;;1.20;;
11471;SDS011;47430;50.808;4.388;2022-07-04T13:51:07;2.22;;;1.25;;
11471;SDS011;47430;50.808;4.388;2022-07-04T13:53:33;3.22;;;1.02;;
11471;SDS011;47430;50.808;4.388;2022-07-04T13:56:00;2.28;;;0.90;;
11471;SDS011;47430;50.808;4.388;2022-07-04T13:58:28;3.45;;;1.00;;
11471;SDS011;47430;50.808;4.388;2022-07-04T14:00:54;4.05;;;1.40;;
11471;SDS011;47430;50.808;4.388;2022-07-04T14:03:20;1.85;;;1.67;;
11471;SDS011;47430;50.808;4.388;2022-07-04T14:05:46;1.67;;;0.98;;
11471;SDS011;47430;50.808;4.388;2022-07-04T14:08:12;1.88;;;0.80;;
11471;SDS011;47430;50.808;4.388;2022-07-04T14:10:38;2.63;;;1.10;;
11471;SDS011;47430;50.808;4.388;2022-07-04T14:13:04;1.40;;;1.25;;
11471;SDS011;47430;50.808;4.388;2022-07-04T14:15:30;2.55;;;1.23;;
11471;SDS011;47430;50.808;4.388;2022-07-04T14:17:56;2.25;;;1.00;;
11471;SDS011;47430;50.808;4.388;2022-07-04T14:20:22;2.03;;;1.17;;
11471;SDS011;47430;50.808;4.388;2022-07-04T14:22:48;5.82;;;1.30;;
11471;SDS011;47430;50.808;4.388;2022-07-04T14:25:14;2.15;;;1.08;;
11471;SDS011;47430;50.808;4.388;2022-07-04T14:27:40;3.45;;;0.90;;
11471;SDS011;47430;50.808;4.388;2022-07-04T14:30:06;2.13;;;0.93;;
11471;SDS011;47430;50.808;4.388;2022-07-04T14:32:33;2.28;;;1.38;;
11471;SDS011;47430;50.808;4.388;2022-07-04T14:34:59;3.72;;;1.30;;
11471;SDS011;47430;50.808;4.388;2022-07-04T14:37:25;2.80;;;1.10;;
11471;SDS011;47430;50.808;4.388;2022-07-04T14:39:53;3.25;;;0.90;;
11471;SDS011;47430;50.808;4.388;2022-07-04T14:42:19;19.10;;;2.38;;
11471;SDS011;47430;50.808;4.388;2022-07-04T14:44:45;3.80;;;1.38;;
11471;SDS011;47430;50.808;4.388;2022-07-04T14:47:11;3.13;;;1.25;;
11471;SDS011;47430;50.808;4.388;2022-07-04T14:49:37;4.68;;;1.20;;
11471;SDS011;47430;50.808;4.388;2022-07-04T14:52:03;5.22;;;1.15;;
11471;SDS011;47430;50.808;4.388;2022-07-04T14:54:29;3.42;;;1.20;;
11471;SDS011;47430;50.808;4.388;2022-07-04T14:56:55;7.80;;;1.17;;
11471;SDS011;47430;50.808;4.388;2022-07-04T14:59:23;1.52;;;1.10;;
11471;SDS011;47430;50.808;4.388;2022-07-04T15:01:49;2.63;;;1.40;;
11471;SDS011;47430;50.808;4.388;2022-07-04T15:04:17;1.70;;;0.90;;
11471;SDS011;47430;50.808;4.388;2022-07-04T15:06:43;2.17;;;1.13;;
11471;SDS011;47430;50.808;4.388;2022-07-04T15:09:10;2.85;;;1.25;;